createdAt,value
2019-05-12T00:00:39.456Z,85.86
2019-05-12T00:01:39.336Z,86.17
2019-05-12T00:02:39.771Z,85.89
2019-05-12T00:03:39.317Z,86.31
2019-05-12T00:04:39.305Z,86.72
2019-05-12T00:05:39.288Z,86.72
2019-05-12T00:06:39.278Z,87.70
2019-05-12T00:07:39.272Z,87.14
2019-05-12T00:08:39.272Z,87.07
2019-05-12T00:09:39.242Z,87.28
2019-05-12T00:10:39.232Z,88.01
2019-05-12T00:11:39.221Z,88.01
2019-05-12T00:12:39.209Z,87.70
2019-05-12T00:13:39.217Z,87.90
2019-05-12T00:14:39.187Z,88.01
2019-05-12T00:15:39.176Z,87.70
2019-05-12T00:16:39.164Z,88.11
2019-05-12T00:17:39.150Z,88.32
2019-05-12T00:18:39.163Z,88.42
2019-05-12T00:19:39.129Z,88.26
2019-05-12T00:20:39.121Z,87.80
2019-05-12T00:21:39.959Z,88.98
2019-05-12T00:22:39.100Z,88.73
2019-05-12T00:23:39.085Z,88.98
2019-05-12T00:24:39.104Z,88.78
2019-05-12T00:25:39.063Z,88.98
2019-05-12T00:26:39.052Z,88.67
2019-05-12T00:27:39.043Z,88.94
2019-05-12T00:28:39.028Z,89.40
2019-05-12T00:29:39.033Z,88.57
2019-05-12T00:30:39.189Z,88.94
2019-05-12T00:31:38.992Z,89.71
2019-05-12T00:32:38.982Z,89.92
2019-05-12T00:33:38.971Z,90.39
2019-05-12T00:34:38.978Z,90.44
2019-05-12T00:35:38.947Z,90.50
2019-05-12T00:36:38.935Z,90.70
2019-05-12T00:37:38.926Z,90.81
2019-05-12T00:38:38.917Z,91.39
2019-05-12T00:39:38.921Z,91.39
2019-05-12T00:40:39.622Z,91.08
2019-05-12T00:41:39.178Z,90.87
2019-05-12T00:42:38.867Z,91.35
2019-05-12T00:43:38.856Z,90.93
2019-05-12T00:44:39.102Z,90.83
2019-05-12T00:45:39.051Z,90.10
2019-05-12T00:46:38.824Z,89.86
2019-05-12T00:47:39.085Z,89.44
2019-05-12T00:48:38.800Z,89.40
2019-05-12T00:49:38.814Z,89.86
2019-05-12T00:50:38.821Z,89.09
2019-05-12T00:51:38.765Z,88.82
2019-05-12T00:52:38.811Z,88.92
2019-05-12T00:53:43.229Z,87.99
2019-05-12T00:54:38.733Z,87.99
2019-05-12T00:55:38.740Z,87.64
2019-05-12T00:56:39.293Z,87.85
2019-05-12T00:57:38.696Z,87.64
2019-05-12T00:58:38.686Z,87.95
2019-05-12T00:59:38.680Z,87.12
2019-05-12T01:00:41.026Z,87.49
2019-05-12T01:01:38.653Z,87.43
2019-05-12T01:02:38.641Z,86.57
2019-05-12T01:03:38.629Z,86.05
2019-05-12T01:04:38.618Z,85.70
2019-05-12T01:05:38.833Z,86.05
2019-05-12T01:06:38.875Z,85.28
2019-05-12T01:07:38.583Z,85.28
2019-05-12T01:08:38.571Z,84.87
2019-05-12T01:09:38.688Z,84.77
2019-05-12T01:10:39.135Z,84.56
2019-05-12T01:11:38.557Z,84.66
2019-05-12T01:12:38.549Z,84.77
2019-05-12T01:13:38.516Z,84.52
2019-05-12T01:14:38.508Z,84.42
2019-05-12T01:15:38.498Z,84.36
2019-05-12T01:16:38.848Z,84.52
2019-05-12T01:17:40.516Z,84.42
2019-05-12T01:18:38.553Z,83.42
2019-05-12T01:19:40.528Z,83.80
2019-05-12T01:20:39.142Z,83.80
2019-05-12T01:21:38.442Z,83.49
2019-05-12T01:22:38.531Z,83.84
2019-05-12T01:23:53.373Z,83.53
2019-05-12T01:24:39.388Z,83.53
2019-05-12T01:25:39.507Z,83.42
2019-05-12T01:26:38.901Z,83.56
2019-05-12T01:27:38.422Z,83.87
2019-05-12T01:28:38.372Z,84.08
2019-05-12T01:29:38.610Z,84.60
2019-05-12T01:30:39.084Z,84.45
2019-05-12T01:31:38.306Z,84.29
2019-05-12T01:32:38.401Z,85.05
2019-05-12T01:33:38.287Z,84.95
2019-05-12T01:34:38.345Z,85.63
2019-05-12T01:35:38.946Z,85.16
2019-05-12T01:36:38.260Z,85.26
2019-05-12T01:37:38.545Z,85.02
2019-05-12T01:38:38.226Z,85.63
2019-05-12T01:39:38.355Z,85.53
2019-05-12T01:40:39.530Z,85.57
2019-05-12T01:41:38.939Z,85.74
2019-05-12T01:42:38.557Z,85.53
2019-05-12T01:43:38.315Z,85.32
2019-05-12T01:44:38.336Z,85.02
2019-05-12T01:45:38.391Z,85.32
2019-05-12T01:46:38.461Z,84.45
2019-05-12T01:47:38.411Z,84.45
2019-05-12T01:48:38.130Z,84.25
2019-05-12T01:49:38.274Z,83.94
2019-05-12T01:50:38.854Z,83.63
2019-05-12T01:51:38.611Z,83.94
2019-05-12T01:52:38.666Z,83.84
2019-05-12T01:53:38.078Z,83.84
2019-05-12T01:54:38.102Z,83.49
2019-05-12T01:55:38.903Z,83.49
2019-05-12T01:56:38.354Z,83.59
2019-05-12T01:57:38.721Z,83.42
2019-05-12T01:58:38.267Z,83.59
2019-05-12T01:59:38.218Z,83.32
2019-05-12T02:00:39.051Z,83.11
2019-05-12T02:01:38.960Z,83.22
2019-05-12T02:02:38.662Z,83.80
2019-05-12T02:03:37.959Z,83.39
2019-05-12T02:04:38.046Z,83.80
2019-05-12T02:05:38.130Z,83.49
2019-05-12T02:06:38.672Z,83.59
2019-05-12T02:07:38.405Z,83.94
2019-05-12T02:08:38.434Z,84.31
2019-05-12T02:09:38.710Z,84.25
2019-05-12T02:10:38.939Z,84.73
2019-05-12T02:11:38.141Z,84.73
2019-05-12T02:12:38.439Z,84.66
2019-05-12T02:13:38.128Z,84.56
2019-05-12T02:14:38.307Z,84.11
2019-05-12T02:15:38.357Z,84.36
2019-05-12T02:16:38.685Z,83.59
2019-05-12T02:17:39.171Z,83.53
2019-05-12T02:18:38.246Z,83.73
2019-05-12T02:19:38.477Z,84.66
2019-05-12T02:20:38.349Z,84.15
2019-05-12T02:21:38.271Z,84.25
2019-05-12T02:22:38.803Z,84.45
2019-05-12T02:23:38.671Z,84.05
2019-05-12T02:24:39.017Z,84.25
2019-05-12T02:25:38.216Z,84.45
2019-05-12T02:26:38.246Z,84.45
2019-05-12T02:27:38.385Z,84.66
2019-05-12T02:28:39.475Z,84.70
2019-05-12T02:29:38.475Z,84.81
2019-05-12T02:30:41.464Z,84.70
2019-05-12T02:31:39.792Z,84.60
2019-05-12T02:32:48.347Z,84.91
2019-05-12T02:33:38.592Z,85.32
2019-05-12T02:34:37.581Z,85.32
2019-05-12T02:35:37.591Z,85.42
2019-05-12T02:36:37.588Z,85.42
2019-05-12T02:37:37.543Z,85.39
2019-05-12T02:38:37.535Z,85.42
2019-05-12T02:39:37.523Z,85.02
2019-05-12T02:40:37.548Z,85.22
2019-05-12T02:41:37.504Z,85.28
2019-05-12T02:42:37.490Z,85.39
2019-05-12T02:43:37.478Z,85.18
2019-05-12T02:44:37.466Z,84.66
2019-05-12T02:45:37.452Z,84.77
2019-05-12T02:46:37.479Z,84.97
2019-05-12T02:47:37.496Z,84.66
2019-05-12T02:48:37.418Z,84.56
2019-05-12T02:49:37.409Z,84.36
2019-05-12T02:50:38.077Z,84.45
2019-05-12T02:51:37.407Z,84.25
2019-05-12T02:52:37.373Z,84.42
2019-05-12T02:53:37.364Z,84.42
2019-05-12T02:54:51.815Z,84.66
2019-05-12T02:55:38.336Z,84.31
2019-05-12T02:56:37.349Z,84.15
2019-05-12T02:57:37.315Z,84.11
2019-05-12T02:58:37.305Z,84.25
2019-05-12T02:59:37.291Z,83.94
2019-05-12T03:00:37.277Z,84.36
2019-05-12T03:01:37.287Z,83.84
2019-05-12T03:02:37.263Z,84.25
2019-05-12T03:03:37.246Z,83.94
2019-05-12T03:04:37.369Z,84.36
2019-05-12T03:05:37.224Z,84.36
2019-05-12T03:06:37.232Z,84.56
2019-05-12T03:07:37.203Z,85.08
2019-05-12T03:08:37.190Z,84.45
2019-05-12T03:09:37.178Z,85.08
2019-05-12T03:10:37.172Z,84.29
2019-05-12T03:11:37.162Z,84.36
2019-05-12T03:12:37.162Z,84.66
2019-05-12T03:13:37.129Z,84.70
2019-05-12T03:14:40.693Z,84.36
2019-05-12T03:15:37.776Z,84.77
2019-05-12T03:16:37.098Z,84.50
2019-05-12T03:17:37.105Z,84.50
2019-05-12T03:18:37.073Z,84.60
2019-05-12T03:19:37.067Z,85.11
2019-05-12T03:20:37.057Z,85.11
2019-05-12T03:21:37.042Z,85.11
2019-05-12T03:22:37.025Z,85.53
2019-05-12T03:23:37.041Z,85.32
2019-05-12T03:24:37.011Z,85.22
2019-05-12T03:25:37.512Z,85.42
2019-05-12T03:26:36.996Z,85.68
2019-05-12T03:27:36.968Z,85.68
2019-05-12T03:28:36.976Z,86.09
2019-05-12T03:29:36.951Z,85.61
2019-05-12T03:30:40.066Z,86.29
2019-05-12T03:31:41.314Z,86.71
2019-05-12T03:32:38.382Z,86.60
2019-05-12T03:33:43.267Z,86.60
2019-05-12T03:34:38.760Z,87.33
2019-05-12T03:35:43.153Z,86.91
2019-05-12T03:36:42.215Z,87.02
2019-05-12T03:37:37.850Z,87.47
2019-05-12T03:38:36.863Z,87.43
2019-05-12T03:39:36.832Z,86.54
2019-05-12T03:40:38.242Z,86.50
2019-05-12T03:41:36.809Z,86.54
2019-05-12T03:42:36.797Z,87.43
2019-05-12T03:43:36.803Z,87.12
2019-05-12T03:44:36.774Z,87.12
2019-05-12T03:45:36.788Z,87.02
2019-05-12T03:46:36.755Z,86.81
2019-05-12T03:47:36.747Z,88.09
2019-05-12T03:48:36.749Z,87.88
2019-05-12T03:49:36.716Z,87.68
2019-05-12T03:50:36.707Z,87.78
2019-05-12T03:51:36.694Z,86.96
2019-05-12T03:52:36.692Z,87.68
2019-05-12T03:53:36.694Z,87.68
2019-05-12T03:54:36.680Z,87.47
2019-05-12T03:55:42.040Z,87.57
2019-05-12T03:56:37.639Z,87.82
2019-05-12T03:57:36.645Z,88.03
2019-05-12T03:58:36.658Z,88.03
2019-05-12T03:59:36.604Z,88.65
2019-05-12T04:00:36.758Z,88.03
2019-05-12T04:01:37.053Z,88.03
2019-05-12T04:02:36.576Z,88.55
2019-05-12T04:03:36.556Z,87.62
2019-05-12T04:04:36.570Z,88.03
2019-05-12T04:05:36.540Z,88.86
2019-05-12T04:06:36.521Z,88.76
2019-05-12T04:07:36.512Z,88.69
2019-05-12T04:08:36.502Z,89.00
2019-05-12T04:09:36.507Z,88.90
2019-05-12T04:10:37.098Z,88.76
2019-05-12T04:11:36.465Z,88.65
2019-05-12T04:12:36.457Z,89.31
2019-05-12T04:13:36.446Z,88.76
2019-05-12T04:14:36.458Z,88.86
2019-05-12T04:15:36.426Z,89.07
2019-05-12T04:16:36.806Z,88.86
2019-05-12T04:17:36.399Z,89.07
2019-05-12T04:18:36.387Z,88.86
2019-05-12T04:19:36.374Z,89.17
2019-05-12T04:20:36.635Z,89.17
2019-05-12T04:21:36.357Z,88.45
2019-05-12T04:22:36.357Z,88.51
2019-05-12T04:23:36.333Z,88.71
2019-05-12T04:24:36.320Z,88.71
2019-05-12T04:25:51.097Z,89.03
2019-05-12T04:26:37.299Z,88.92
2019-05-12T04:27:36.289Z,88.71
2019-05-12T04:28:36.280Z,88.82
2019-05-12T04:29:36.271Z,88.98
2019-05-12T04:30:36.259Z,88.88
2019-05-12T04:31:36.268Z,88.67
2019-05-12T04:32:36.227Z,88.88
2019-05-12T04:33:36.217Z,88.67
2019-05-12T04:34:36.211Z,88.36
2019-05-12T04:35:36.198Z,88.78
2019-05-12T04:36:36.202Z,88.74
2019-05-12T04:37:36.172Z,88.43
2019-05-12T04:38:36.161Z,88.74
2019-05-12T04:39:36.145Z,88.22
2019-05-12T04:40:36.555Z,88.53
2019-05-12T04:41:36.145Z,87.87
2019-05-12T04:42:36.115Z,87.97
2019-05-12T04:43:36.105Z,88.28
2019-05-12T04:44:36.102Z,87.15
2019-05-12T04:45:36.082Z,87.35
2019-05-12T04:46:36.089Z,86.49
2019-05-12T04:47:36.056Z,85.97
2019-05-12T04:48:36.165Z,86.18
2019-05-12T04:49:36.035Z,85.66
2019-05-12T04:50:36.556Z,85.76
2019-05-12T04:51:36.037Z,86.03
2019-05-12T04:52:36.004Z,85.83
2019-05-12T04:53:35.990Z,85.31
2019-05-12T04:54:35.977Z,84.96
2019-05-12T04:55:36.597Z,84.96
2019-05-12T04:56:36.346Z,84.13
2019-05-12T04:57:35.958Z,83.51
2019-05-12T04:58:35.934Z,83.31
2019-05-12T04:59:35.943Z,82.75
2019-05-12T05:00:36.189Z,83.06
2019-05-12T05:01:35.897Z,82.89
2019-05-12T05:02:36.725Z,82.34
2019-05-12T05:03:35.872Z,82.65
2019-05-12T05:04:35.859Z,82.34
2019-05-12T05:05:36.408Z,82.30
2019-05-12T05:06:35.842Z,82.51
2019-05-12T05:07:36.160Z,82.51
2019-05-12T05:08:35.814Z,81.13
2019-05-12T05:09:35.804Z,80.65
2019-05-12T05:10:35.789Z,80.82
2019-05-12T05:11:35.812Z,80.41
2019-05-12T05:12:35.789Z,80.37
2019-05-12T05:13:39.561Z,80.72
2019-05-12T05:14:35.744Z,79.96
2019-05-12T05:15:35.730Z,79.34
2019-05-12T05:16:35.721Z,79.10
2019-05-12T05:17:35.709Z,79.65
2019-05-12T05:18:35.714Z,79.20
2019-05-12T05:19:35.685Z,78.48
2019-05-12T05:20:35.676Z,79.41
2019-05-12T05:21:35.661Z,78.03
2019-05-12T05:22:38.111Z,77.93
2019-05-12T05:23:35.657Z,78.34
2019-05-12T05:24:35.627Z,77.58
2019-05-12T05:25:35.616Z,77.17
2019-05-12T05:26:37.480Z,77.28
2019-05-12T05:27:35.591Z,77.07
2019-05-12T05:28:35.605Z,76.76
2019-05-12T05:29:37.238Z,76.25
2019-05-12T05:30:35.557Z,76.86
2019-05-12T05:31:35.547Z,76.52
2019-05-12T05:32:35.536Z,76.97
2019-05-12T05:33:35.547Z,76.93
2019-05-12T05:34:35.514Z,76.52
2019-05-12T05:35:39.696Z,75.80
2019-05-12T05:36:35.491Z,76.31
2019-05-12T05:37:40.131Z,75.80
2019-05-12T05:38:36.511Z,75.46
2019-05-12T05:39:47.949Z,75.56
2019-05-12T05:40:36.450Z,75.35
2019-05-12T05:41:40.195Z,74.63
2019-05-12T05:42:36.423Z,74.29
2019-05-12T05:43:35.413Z,74.91
2019-05-12T05:44:37.976Z,73.78
2019-05-12T05:45:35.663Z,74.08
2019-05-12T05:46:38.965Z,74.46
2019-05-12T05:47:36.364Z,73.85
2019-05-12T05:48:35.352Z,73.78
2019-05-12T05:49:35.368Z,73.85
2019-05-12T05:50:35.344Z,72.65
2019-05-12T05:51:39.638Z,73.02
2019-05-12T05:52:38.771Z,73.85
2019-05-12T05:53:35.297Z,73.95
2019-05-12T05:54:37.081Z,73.10
2019-05-12T05:55:35.271Z,72.38
2019-05-12T05:56:42.361Z,72.58
2019-05-12T05:57:36.246Z,72.58
2019-05-12T05:58:35.240Z,72.58
2019-05-12T05:59:36.851Z,72.03
2019-05-12T06:00:38.965Z,72.34
2019-05-12T06:01:40.315Z,71.83
2019-05-12T06:02:40.432Z,72.65
2019-05-12T06:03:35.177Z,72.31
2019-05-12T06:04:39.259Z,71.90
2019-05-12T06:05:38.584Z,71.39
2019-05-12T06:06:35.141Z,71.56
2019-05-12T06:07:39.183Z,70.22
2019-05-12T06:08:35.117Z,70.02
2019-05-12T06:09:35.123Z,69.68
2019-05-12T06:10:39.860Z,69.47
2019-05-12T06:11:36.079Z,69.44
2019-05-12T06:12:35.071Z,69.44
2019-05-12T06:13:35.058Z,69.34
2019-05-12T06:14:35.063Z,69.24
2019-05-12T06:15:40.429Z,69.00
2019-05-12T06:16:36.024Z,68.90
2019-05-12T06:17:35.015Z,67.74
2019-05-12T06:18:35.002Z,67.16
2019-05-12T06:19:35.005Z,67.13
2019-05-12T06:20:37.959Z,67.60
2019-05-12T06:21:38.139Z,68.12
2019-05-12T06:22:34.954Z,67.60
2019-05-12T06:23:39.121Z,66.28
2019-05-12T06:24:34.950Z,64.40
2019-05-12T06:25:45.557Z,63.40
2019-05-12T06:26:36.045Z,63.49
2019-05-12T06:27:36.024Z,62.82
2019-05-12T06:28:37.122Z,61.91
2019-05-12T06:29:35.890Z,62.21
2019-05-12T06:30:43.427Z,62.76
2019-05-12T06:31:35.846Z,61.22
2019-05-12T06:32:34.838Z,62.76
2019-05-12T06:33:36.322Z,61.83
2019-05-12T06:34:34.837Z,62.73
2019-05-12T06:35:37.404Z,61.40
2019-05-12T06:36:35.793Z,60.99
2019-05-12T06:37:34.786Z,61.09
2019-05-12T06:38:38.676Z,62.21
2019-05-12T06:39:35.778Z,58.86
2019-05-12T06:40:40.756Z,55.85
2019-05-12T06:41:35.733Z,53.91
2019-05-12T06:42:34.721Z,52.56
2019-05-12T06:43:38.780Z,51.17
2019-05-12T06:44:35.717Z,49.71
2019-05-12T06:45:41.907Z,47.98
2019-05-12T06:46:35.678Z,46.77
2019-05-12T06:47:39.438Z,45.59
2019-05-12T06:48:35.654Z,45.13
2019-05-12T06:49:34.661Z,44.65
2019-05-12T06:50:39.084Z,44.19
2019-05-12T06:51:34.619Z,46.04
2019-05-12T06:52:38.679Z,45.68
2019-05-12T06:53:35.596Z,46.73
2019-05-12T06:54:34.605Z,46.96
2019-05-12T06:55:39.162Z,48.70
2019-05-12T06:56:34.563Z,48.85
2019-05-12T06:57:34.552Z,50.16
2019-05-12T06:58:34.634Z,48.87
2019-05-12T06:59:34.546Z,48.17
2019-05-12T07:00:35.275Z,47.75
2019-05-12T07:01:34.505Z,44.41
2019-05-12T07:02:36.658Z,42.38
2019-05-12T07:03:37.313Z,41.97
2019-05-12T07:04:34.490Z,43.14
2019-05-12T07:05:38.469Z,45.28
2019-05-12T07:06:35.450Z,44.81
2019-05-12T07:07:41.924Z,43.32
2019-05-12T07:08:38.325Z,43.14
2019-05-12T07:09:36.639Z,44.85
2019-05-12T07:10:42.407Z,44.67
2019-05-12T07:11:44.966Z,44.70
2019-05-12T07:12:43.498Z,45.40
2019-05-12T07:13:35.366Z,44.67
2019-05-12T07:14:34.678Z,44.13
2019-05-12T07:15:40.100Z,40.77
2019-05-12T07:16:35.378Z,42.11
2019-05-12T07:17:37.255Z,43.57
2019-05-12T07:18:37.060Z,44.57
2019-05-12T07:19:34.314Z,43.51
2019-05-12T07:20:38.642Z,44.74
2019-05-12T07:21:34.274Z,45.47
2019-05-12T07:22:43.801Z,45.91
2019-05-12T07:23:35.251Z,46.14
2019-05-12T07:24:34.272Z,47.58
2019-05-12T07:25:36.639Z,47.88
2019-05-12T07:26:34.219Z,48.79
2019-05-12T07:27:39.314Z,49.19
2019-05-12T07:28:40.092Z,46.97
2019-05-12T07:29:35.200Z,48.21
2019-05-12T07:30:35.091Z,48.25
2019-05-12T07:31:34.159Z,48.60
2019-05-12T07:32:34.437Z,49.64
2019-05-12T07:33:41.473Z,49.44
2019-05-12T07:34:35.147Z,50.09
2019-05-12T07:35:34.318Z,50.37
2019-05-12T07:36:34.100Z,51.09
2019-05-12T07:37:34.087Z,51.11
2019-05-12T07:38:34.417Z,52.23
2019-05-12T07:39:36.971Z,52.56
2019-05-12T07:40:37.935Z,52.08
2019-05-12T07:41:34.327Z,51.97
2019-05-12T07:42:39.416Z,52.71
2019-05-12T07:43:35.018Z,53.09
2019-05-12T07:44:39.740Z,50.18
2019-05-12T07:45:35.015Z,47.03
2019-05-12T07:46:34.337Z,45.78
2019-05-12T07:47:33.973Z,42.58
2019-05-12T07:48:33.962Z,41.21
2019-05-12T07:49:38.417Z,39.23
2019-05-12T07:50:34.652Z,37.45
2019-05-12T07:51:38.809Z,36.18
2019-05-12T07:52:34.916Z,35.83
2019-05-12T07:53:33.964Z,34.38
2019-05-12T07:54:37.263Z,31.84
2019-05-12T07:55:39.578Z,33.00
2019-05-12T07:56:35.751Z,31.98
2019-05-12T07:57:37.968Z,30.44
2019-05-12T07:58:34.848Z,28.35
2019-05-12T07:59:39.415Z,27.92
2019-05-12T08:00:34.845Z,27.11
2019-05-12T08:01:35.791Z,27.08
2019-05-12T08:02:35.672Z,26.59
2019-05-12T08:03:34.504Z,25.68
2019-05-12T08:04:39.575Z,25.19
2019-05-12T08:05:34.789Z,26.86
2019-05-12T08:06:41.417Z,25.83
2019-05-12T08:07:34.748Z,24.54
2019-05-12T08:08:34.020Z,24.87
2019-05-12T08:09:36.368Z,25.62
2019-05-12T08:10:34.437Z,26.31
2019-05-12T08:11:37.315Z,24.53
2019-05-12T08:12:34.695Z,24.16
2019-05-12T08:13:37.771Z,23.46
2019-05-12T08:14:34.689Z,25.84
2019-05-12T08:15:34.171Z,25.96
2019-05-12T08:16:36.825Z,26.40
2019-05-12T08:17:33.795Z,26.49
2019-05-12T08:18:37.074Z,25.93
2019-05-12T08:19:34.623Z,26.58
2019-05-12T08:20:34.340Z,28.83
2019-05-12T08:21:34.819Z,29.78
2019-05-12T08:22:34.785Z,31.05
2019-05-12T08:23:33.972Z,33.20
2019-05-12T08:24:35.363Z,34.16
2019-05-12T08:25:34.572Z,34.99
2019-05-12T08:26:33.580Z,34.53
2019-05-12T08:27:34.043Z,34.71
2019-05-12T08:28:36.120Z,34.19
2019-05-12T08:29:34.508Z,35.44
2019-05-12T08:30:33.751Z,35.78
2019-05-12T08:31:40.093Z,36.05
2019-05-12T08:32:34.477Z,36.15
2019-05-12T08:33:34.714Z,36.30
2019-05-12T08:34:34.073Z,37.91
2019-05-12T08:35:37.714Z,36.72
2019-05-12T08:36:33.601Z,37.34
2019-05-12T08:37:33.465Z,36.35
2019-05-12T08:38:33.765Z,35.98
2019-05-12T08:39:33.790Z,34.69
2019-05-12T08:40:34.121Z,32.22
2019-05-12T08:41:34.131Z,32.44
2019-05-12T08:42:34.437Z,29.00
2019-05-12T08:43:34.322Z,29.25
2019-05-12T08:44:40.173Z,27.75
2019-05-12T08:45:37.343Z,26.73
2019-05-12T08:46:34.442Z,26.09
2019-05-12T08:47:35.518Z,27.35
2019-05-12T08:48:34.369Z,24.76
2019-05-12T08:49:49.490Z,25.74
2019-05-12T08:50:36.109Z,26.75
2019-05-12T08:51:33.879Z,26.02
2019-05-12T08:52:37.100Z,23.75
2019-05-12T08:53:34.245Z,24.13
2019-05-12T08:54:33.710Z,26.10
2019-05-12T08:55:35.670Z,23.73
2019-05-12T08:56:33.380Z,24.92
2019-05-12T08:57:40.928Z,24.71
2019-05-12T08:58:47.238Z,22.24
2019-05-12T08:59:34.290Z,23.72
2019-05-12T09:00:34.221Z,22.82
2019-05-12T09:01:34.406Z,22.73
2019-05-12T09:02:34.430Z,22.34
2019-05-12T09:03:33.647Z,24.19
2019-05-12T09:04:33.884Z,22.81
2019-05-12T09:05:34.559Z,23.74
2019-05-12T09:06:34.360Z,22.80
2019-05-12T09:07:37.290Z,25.33
2019-05-12T09:08:37.929Z,26.15
2019-05-12T09:09:34.083Z,26.03
2019-05-12T09:10:34.358Z,27.52
2019-05-12T09:11:33.559Z,27.41
2019-05-12T09:12:33.714Z,26.68
2019-05-12T09:13:33.918Z,26.61
2019-05-12T09:14:41.092Z,25.66
2019-05-12T09:15:34.715Z,25.32
2019-05-12T09:16:33.598Z,23.41
2019-05-12T09:17:34.723Z,23.95
2019-05-12T09:18:37.686Z,22.19
2019-05-12T09:19:33.983Z,23.09
2019-05-12T09:20:33.211Z,22.09
2019-05-12T09:21:36.568Z,20.94
2019-05-12T09:22:34.301Z,21.68
2019-05-12T09:23:40.944Z,23.99
2019-05-12T09:24:33.926Z,24.88
2019-05-12T09:25:34.160Z,25.05
2019-05-12T09:26:34.391Z,25.49
2019-05-12T09:27:33.489Z,25.19
2019-05-12T09:28:44.381Z,24.93
2019-05-12T09:29:34.216Z,25.57
2019-05-12T09:30:33.669Z,27.59
2019-05-12T09:31:33.559Z,26.13
2019-05-12T09:32:33.887Z,27.05
2019-05-12T09:33:34.760Z,27.15
2019-05-12T09:34:33.615Z,27.11
2019-05-12T09:35:35.045Z,26.15
2019-05-12T09:36:34.116Z,24.22
2019-05-12T09:37:39.025Z,23.50
2019-05-12T09:38:33.777Z,23.87
2019-05-12T09:39:34.089Z,25.37
2019-05-12T09:40:35.510Z,23.87
2019-05-12T09:41:34.342Z,22.28
2019-05-12T09:42:33.736Z,22.28
2019-05-12T09:43:34.395Z,25.21
2019-05-12T09:44:34.118Z,21.84
2019-05-12T09:45:33.411Z,21.34
2019-05-12T09:46:34.380Z,22.64
2019-05-12T09:47:34.341Z,23.13
2019-05-12T09:48:33.466Z,23.51
2019-05-12T09:49:39.041Z,22.71
2019-05-12T09:50:34.169Z,24.17
2019-05-12T09:51:41.002Z,21.59
2019-05-12T09:52:33.633Z,20.25
2019-05-12T09:53:34.072Z,22.03
2019-05-12T09:54:35.431Z,19.92
2019-05-12T09:55:34.298Z,24.74
2019-05-12T09:56:34.219Z,25.50
2019-05-12T09:57:40.721Z,23.11
2019-05-12T09:58:33.760Z,22.92
2019-05-12T09:59:33.637Z,22.31
2019-05-12T10:00:36.065Z,20.44
2019-05-12T10:01:37.422Z,23.69
2019-05-12T10:02:33.532Z,20.83
2019-05-12T10:03:38.790Z,22.20
2019-05-12T10:04:33.513Z,21.59
2019-05-12T10:05:37.695Z,20.91
2019-05-12T10:06:34.022Z,21.41
2019-05-12T10:07:33.966Z,22.14
2019-05-12T10:08:35.698Z,20.95
2019-05-12T10:09:33.531Z,19.84
2019-05-12T10:10:38.134Z,20.10
2019-05-12T10:11:33.459Z,22.04
2019-05-12T10:12:38.741Z,25.32
2019-05-12T10:13:33.420Z,24.60
2019-05-12T10:14:32.413Z,24.06
2019-05-12T10:15:33.129Z,24.81
2019-05-12T10:16:33.418Z,22.12
2019-05-12T10:17:34.020Z,21.53
2019-05-12T10:18:33.662Z,21.22
2019-05-12T10:19:34.001Z,21.14
2019-05-12T10:20:35.160Z,22.27
2019-05-12T10:21:35.613Z,23.56
2019-05-12T10:22:35.732Z,23.07
2019-05-12T10:23:34.060Z,25.19
2019-05-12T10:24:40.574Z,24.90
2019-05-12T10:25:33.873Z,26.45
2019-05-12T10:26:34.233Z,25.81
2019-05-12T10:27:34.561Z,26.65
2019-05-12T10:28:32.266Z,24.92
2019-05-12T10:29:32.472Z,23.32
2019-05-12T10:30:34.091Z,20.84
2019-05-12T10:31:37.059Z,23.39
2019-05-12T10:32:34.254Z,22.19
2019-05-12T10:33:33.813Z,19.82
2019-05-12T10:34:35.985Z,22.47
2019-05-12T10:35:34.958Z,22.08
2019-05-12T10:36:33.753Z,21.98
2019-05-12T10:37:32.175Z,19.73
2019-05-12T10:38:34.200Z,23.09
2019-05-12T10:39:33.472Z,20.82
2019-05-12T10:40:33.833Z,18.44
2019-05-12T10:41:34.120Z,20.31
2019-05-12T10:42:33.642Z,21.67
2019-05-12T10:43:34.105Z,20.89
2019-05-12T10:44:37.485Z,21.41
2019-05-12T10:45:33.089Z,22.53
2019-05-12T10:46:32.077Z,22.06
2019-05-12T10:47:34.232Z,22.89
2019-05-12T10:48:33.870Z,24.65
2019-05-12T10:49:33.713Z,25.13
2019-05-12T10:50:34.026Z,27.69
2019-05-12T10:51:34.242Z,26.86
2019-05-12T10:52:36.963Z,29.64
2019-05-12T10:53:34.151Z,29.86
2019-05-12T10:54:34.107Z,29.08
2019-05-12T10:55:33.469Z,27.81
2019-05-12T10:56:34.651Z,29.65
2019-05-12T10:57:33.366Z,31.78
2019-05-12T10:58:33.619Z,29.51
2019-05-12T10:59:33.328Z,31.79
2019-05-12T11:00:33.856Z,33.09
2019-05-12T11:02:30.670Z,30.10
2019-05-12T11:03:30.236Z,28.33
2019-05-12T11:04:36.991Z,25.00
2019-05-12T11:05:33.649Z,25.49
2019-05-12T11:06:30.200Z,25.95
2019-05-12T11:07:30.210Z,25.33
2019-05-12T11:08:30.181Z,23.80
2019-05-12T11:09:32.270Z,23.97
2019-05-12T11:10:30.162Z,22.58
2019-05-12T11:11:32.915Z,23.29
2019-05-12T11:12:33.223Z,23.33
2019-05-12T11:13:30.125Z,24.66
2019-05-12T11:14:30.672Z,24.80
2019-05-12T11:15:30.105Z,28.32
2019-05-12T11:16:31.982Z,26.65
2019-05-12T11:17:30.112Z,27.56
2019-05-12T11:18:30.564Z,26.34
2019-05-12T11:19:30.060Z,26.68
2019-05-12T11:20:30.055Z,28.99
2019-05-12T11:21:30.046Z,28.50
2019-05-12T11:22:30.043Z,28.49
2019-05-12T11:23:30.021Z,29.50
2019-05-12T11:24:30.005Z,30.01
2019-05-12T11:25:29.993Z,28.87
2019-05-12T11:26:29.984Z,31.49
2019-05-12T11:27:29.992Z,32.32
2019-05-12T11:28:29.958Z,32.12
2019-05-12T11:29:44.857Z,33.54
2019-05-12T11:30:30.938Z,33.44
2019-05-12T11:31:29.928Z,31.49
2019-05-12T11:32:34.919Z,30.65
2019-05-12T11:33:30.901Z,30.99
2019-05-12T11:34:29.892Z,27.95
2019-05-12T11:35:29.881Z,27.59
2019-05-12T11:36:29.872Z,26.20
2019-05-12T11:37:29.877Z,27.24
2019-05-12T11:38:29.848Z,27.97
2019-05-12T11:39:30.530Z,29.48
2019-05-12T11:40:30.824Z,28.31
2019-05-12T11:41:29.816Z,29.74
2019-05-12T11:42:29.825Z,30.87
2019-05-12T11:43:29.991Z,29.11
2019-05-12T11:44:29.783Z,28.11
2019-05-12T11:45:29.769Z,28.58
2019-05-12T11:46:29.761Z,29.68
2019-05-12T11:47:29.770Z,29.80
2019-05-12T11:48:29.737Z,27.69
2019-05-12T11:49:29.726Z,28.10
2019-05-12T11:50:29.716Z,29.31
2019-05-12T11:51:30.663Z,28.84
2019-05-12T11:52:29.693Z,28.75
2019-05-12T11:53:32.205Z,30.98
2019-05-12T11:54:29.673Z,31.71
2019-05-12T11:55:31.698Z,31.94
2019-05-12T11:56:29.647Z,32.87
2019-05-12T11:57:30.362Z,33.59
2019-05-12T11:58:29.651Z,35.33
2019-05-12T11:59:29.613Z,33.92
2019-05-12T12:00:29.599Z,34.76
2019-05-12T12:01:29.589Z,34.67
2019-05-12T12:02:30.611Z,36.58
2019-05-12T12:03:29.565Z,35.90
2019-05-12T12:04:29.573Z,34.69
2019-05-12T12:05:29.544Z,35.39
2019-05-12T12:06:29.538Z,34.29
2019-05-12T12:07:29.524Z,34.69
2019-05-12T12:08:33.714Z,36.25
2019-05-12T12:09:30.517Z,33.73
2019-05-12T12:10:37.469Z,30.95
2019-05-12T12:11:30.475Z,30.11
2019-05-12T12:12:29.471Z,29.07
2019-05-12T12:13:30.129Z,28.09
2019-05-12T12:14:31.776Z,29.71
2019-05-12T12:15:30.394Z,29.46
2019-05-12T12:16:29.423Z,30.81
2019-05-12T12:17:35.505Z,35.25
2019-05-12T12:18:30.398Z,34.49
2019-05-12T12:19:37.809Z,33.71
2019-05-12T12:20:30.378Z,33.42
2019-05-12T12:21:31.897Z,35.05
2019-05-12T12:22:30.354Z,34.76
2019-05-12T12:23:29.351Z,34.04
2019-05-12T12:24:31.450Z,35.33
2019-05-12T12:25:29.317Z,32.14
2019-05-12T12:26:30.622Z,31.54
2019-05-12T12:27:29.297Z,33.84
2019-05-12T12:28:29.283Z,32.14
2019-05-12T12:29:29.273Z,31.94
2019-05-12T12:30:29.279Z,32.84
2019-05-12T12:31:34.218Z,32.06
2019-05-12T12:32:30.235Z,33.96
2019-05-12T12:33:30.940Z,33.58
2019-05-12T12:34:30.565Z,32.27
2019-05-12T12:35:29.220Z,31.10
2019-05-12T12:36:29.188Z,29.54
2019-05-12T12:37:29.185Z,27.80
2019-05-12T12:38:29.169Z,27.06
2019-05-12T12:39:29.155Z,27.65
2019-05-12T12:40:29.164Z,26.94
2019-05-12T12:41:29.136Z,26.03
2019-05-12T12:42:30.353Z,26.53
2019-05-12T12:43:30.109Z,26.81
2019-05-12T12:44:29.104Z,25.71
2019-05-12T12:45:30.427Z,25.57
2019-05-12T12:46:30.077Z,24.97
2019-05-12T12:47:29.065Z,25.30
2019-05-12T12:48:29.845Z,26.38
2019-05-12T12:49:29.557Z,28.31
2019-05-12T12:50:30.668Z,28.58
2019-05-12T12:51:29.040Z,28.70
2019-05-12T12:52:29.011Z,27.39
2019-05-12T12:53:29.056Z,27.85